sensor_id;sensor_type;location;lat;lon;timestamp;pressure;altitude;pressure_sealevel;temperature;humidity
62592;BME280;48659;41.622;2.276;2023-04-07T00:01:07;100128.80;;;10.68;48.41
62592;BME280;48659;41.622;2.276;2023-04-07T00:03:35;100132.74;;;11.08;48.06
62592;BME280;48659;41.622;2.276;2023-04-07T00:06:02;100137.07;;;10.50;48.40
62592;BME280;48659;41.622;2.276;2023-04-07T00:08:29;100132.15;;;11.00;47.30
62592;BME280;48659;41.622;2.276;2023-04-07T00:11:04;100131.23;;;11.02;47.08
62592;BME280;48659;41.622;2.276;2023-04-07T00:13:32;100130.00;;;11.28;46.74
62592;BME280;48659;41.622;2.276;2023-04-07T00:16:00;100131.42;;;10.97;46.99
62592;BME280;48659;41.622;2.276;2023-04-07T00:18:28;100129.24;;;10.24;49.09
62592;BME280;48659;41.622;2.276;2023-04-07T00:21:04;100125.18;;;10.64;48.02
62592;BME280;48659;41.622;2.276;2023-04-07T00:23:32;100120.10;;;9.33;51.09
62592;BME280;48659;41.622;2.276;2023-04-07T00:25:59;100112.69;;;10.48;48.49
62592;BME280;48659;41.622;2.276;2023-04-07T00:28:26;100111.28;;;10.67;47.37
62592;BME280;48659;41.622;2.276;2023-04-07T00:31:02;100111.48;;;10.54;47.55
62592;BME280;48659;41.622;2.276;2023-04-07T00:33:30;100114.67;;;10.67;47.28
62592;BME280;48659;41.622;2.276;2023-04-07T00:36:02;100117.47;;;10.78;46.69
62592;BME280;48659;41.622;2.276;2023-04-07T00:38:30;100110.98;;;10.43;47.66
62592;BME280;48659;41.622;2.276;2023-04-07T00:41:02;100112.12;;;10.71;47.67
62592;BME280;48659;41.622;2.276;2023-04-07T00:43:30;100109.31;;;11.38;46.79
62592;BME280;48659;41.622;2.276;2023-04-07T00:46:02;100106.94;;;10.59;47.04
62592;BME280;48659;41.622;2.276;2023-04-07T00:48:29;100104.89;;;11.21;46.77
62592;BME280;48659;41.622;2.276;2023-04-07T00:51:03;100101.21;;;11.08;47.02
62592;BME280;48659;41.622;2.276;2023-04-07T00:53:30;100095.34;;;10.59;47.66
62592;BME280;48659;41.622;2.276;2023-04-07T00:56:01;100092.85;;;9.39;48.16
62592;BME280;48659;41.622;2.276;2023-04-07T00:58:29;100094.94;;;8.44;53.11
62592;BME280;48659;41.622;2.276;2023-04-07T01:01:03;100094.91;;;7.47;54.59
62592;BME280;48659;41.622;2.276;2023-04-07T01:03:34;100094.45;;;7.81;54.11
62592;BME280;48659;41.622;2.276;2023-04-07T01:06:05;100084.87;;;9.64;49.79
62592;BME280;48659;41.622;2.276;2023-04-07T01:08:41;100081.21;;;10.78;47.34
62592;BME280;48659;41.622;2.276;2023-04-07T01:11:16;100077.17;;;9.37;50.37
62592;BME280;48659;41.622;2.276;2023-04-07T01:16:34;100056.51;;;9.88;48.08
62592;BME280;48659;41.622;2.276;2023-04-07T01:19:12;100052.97;;;10.55;47.39
62592;BME280;48659;41.622;2.276;2023-04-07T01:21:41;100061.33;;;9.08;50.02
62592;BME280;48659;41.622;2.276;2023-04-07T01:24:25;100057.02;;;9.90;48.20
62592;BME280;48659;41.622;2.276;2023-04-07T01:27:06;100056.26;;;10.65;47.94
62592;BME280;48659;41.622;2.276;2023-04-07T01:29:41;100064.89;;;9.30;49.56
62592;BME280;48659;41.622;2.276;2023-04-07T01:32:13;100062.40;;;7.51;54.81
62592;BME280;48659;41.622;2.276;2023-04-07T01:34:43;100054.86;;;9.50;50.53
62592;BME280;48659;41.622;2.276;2023-04-07T01:37:12;100051.11;;;9.64;48.94
62592;BME280;48659;41.622;2.276;2023-04-07T01:39:40;100057.28;;;8.71;51.16
62592;BME280;48659;41.622;2.276;2023-04-07T01:42:08;100053.82;;;9.41;48.96
62592;BME280;48659;41.622;2.276;2023-04-07T01:44:36;100052.53;;;10.59;47.75
62592;BME280;48659;41.622;2.276;2023-04-07T01:47:05;100046.96;;;9.33;48.68
62592;BME280;48659;41.622;2.276;2023-04-07T01:49:33;100045.75;;;10.10;47.62
62592;BME280;48659;41.622;2.276;2023-04-07T01:52:04;100051.25;;;7.62;52.05
62592;BME280;48659;41.622;2.276;2023-04-07T01:54:31;100049.67;;;7.75;53.36
62592;BME280;48659;41.622;2.276;2023-04-07T01:56:59;100047.66;;;7.53;54.65
62592;BME280;48659;41.622;2.276;2023-04-07T01:59:26;100047.58;;;8.72;52.41
62592;BME280;48659;41.622;2.276;2023-04-07T02:01:54;100041.71;;;9.34;50.56
62592;BME280;48659;41.622;2.276;2023-04-07T02:04:26;100042.36;;;9.51;49.89
62592;BME280;48659;41.622;2.276;2023-04-07T02:06:59;100040.27;;;9.57;49.59
62592;BME280;48659;41.622;2.276;2023-04-07T02:09:30;100043.96;;;8.85;51.58
62592;BME280;48659;41.622;2.276;2023-04-07T02:12:03;100051.41;;;7.14;55.80
62592;BME280;48659;41.622;2.276;2023-04-07T02:14:35;100044.35;;;8.25;53.60
62592;BME280;48659;41.622;2.276;2023-04-07T02:17:04;100038.13;;;9.15;50.56
62592;BME280;48659;41.622;2.276;2023-04-07T02:19:32;100036.48;;;9.51;49.69
62592;BME280;48659;41.622;2.276;2023-04-07T02:22:02;100034.30;;;9.19;49.22
62592;BME280;48659;41.622;2.276;2023-04-07T02:24:31;100030.96;;;9.72;49.11
62592;BME280;48659;41.622;2.276;2023-04-07T02:27:02;100024.45;;;9.37;49.00
62592;BME280;48659;41.622;2.276;2023-04-07T02:29:30;100030.53;;;8.27;51.64
62592;BME280;48659;41.622;2.276;2023-04-07T02:31:57;100030.99;;;8.11;51.87
62592;BME280;48659;41.622;2.276;2023-04-07T02:34:24;100024.02;;;8.95;50.70
62592;BME280;48659;41.622;2.276;2023-04-07T02:36:52;100020.42;;;9.49;49.52
62592;BME280;48659;41.622;2.276;2023-04-07T02:39:19;100017.31;;;10.23;48.38
62592;BME280;48659;41.622;2.276;2023-04-07T02:41:46;100017.58;;;8.24;51.69
62592;BME280;48659;41.622;2.276;2023-04-07T02:44:14;100011.73;;;9.11;49.42
62592;BME280;48659;41.622;2.276;2023-04-07T02:46:41;100012.97;;;9.04;49.12
62592;BME280;48659;41.622;2.276;2023-04-07T02:49:08;100016.97;;;9.21;49.19
62592;BME280;48659;41.622;2.276;2023-04-07T02:51:36;100019.43;;;8.35;51.54
62592;BME280;48659;41.622;2.276;2023-04-07T02:54:03;100017.93;;;5.70;58.51
62592;BME280;48659;41.622;2.276;2023-04-07T02:56:30;100019.01;;;5.68;58.11
62592;BME280;48659;41.622;2.276;2023-04-07T02:59:02;100014.08;;;6.72;56.40
62592;BME280;48659;41.622;2.276;2023-04-07T03:01:29;100010.05;;;8.89;51.53
62592;BME280;48659;41.622;2.276;2023-04-07T03:04:02;100000.46;;;8.90;50.27
62592;BME280;48659;41.622;2.276;2023-04-07T03:06:29;100002.18;;;9.44;49.98
62592;BME280;48659;41.622;2.276;2023-04-07T03:09:02;100004.48;;;9.32;49.47
62592;BME280;48659;41.622;2.276;2023-04-07T03:11:30;100008.63;;;9.34;49.50
62592;BME280;48659;41.622;2.276;2023-04-07T03:14:02;100004.41;;;9.01;49.18
62592;BME280;48659;41.622;2.276;2023-04-07T03:16:30;100000.86;;;9.60;49.48
62592;BME280;48659;41.622;2.276;2023-04-07T03:18:58;100000.25;;;9.23;49.67
62592;BME280;48659;41.622;2.276;2023-04-07T03:21:25;100003.30;;;9.31;49.32
62592;BME280;48659;41.622;2.276;2023-04-07T03:23:52;100007.76;;;9.55;48.66
62592;BME280;48659;41.622;2.276;2023-04-07T03:26:19;100017.94;;;6.73;53.09
62592;BME280;48659;41.622;2.276;2023-04-07T03:28:47;100023.99;;;6.13;57.26
62592;BME280;48659;41.622;2.276;2023-04-07T03:31:15;100011.55;;;7.72;53.70
62592;BME280;48659;41.622;2.276;2023-04-07T03:33:42;100009.08;;;8.73;51.23
62592;BME280;48659;41.622;2.276;2023-04-07T03:36:09;100003.46;;;8.92;49.66
62592;BME280;48659;41.622;2.276;2023-04-07T03:38:37;100003.39;;;9.03;50.18
62592;BME280;48659;41.622;2.276;2023-04-07T03:41:04;100002.99;;;7.28;53.44
62592;BME280;48659;41.622;2.276;2023-04-07T03:43:32;100001.55;;;8.87;50.26
62592;BME280;48659;41.622;2.276;2023-04-07T03:46:02;100004.53;;;7.92;51.64
62592;BME280;48659;41.622;2.276;2023-04-07T03:48:30;100012.95;;;5.79;58.32
62592;BME280;48659;41.622;2.276;2023-04-07T03:51:03;99998.71;;;7.21;54.20
62592;BME280;48659;41.622;2.276;2023-04-07T03:53:30;99995.34;;;6.99;54.67
62592;BME280;48659;41.622;2.276;2023-04-07T03:56:02;99996.35;;;7.55;52.57
62592;BME280;48659;41.622;2.276;2023-04-07T03:58:30;99994.23;;;7.05;54.70
62592;BME280;48659;41.622;2.276;2023-04-07T04:00:57;99992.04;;;7.06;55.43
62592;BME280;48659;41.622;2.276;2023-04-07T04:03:24;100001.25;;;6.45;56.82
62592;BME280;48659;41.622;2.276;2023-04-07T04:05:51;100004.25;;;4.90;61.29
62592;BME280;48659;41.622;2.276;2023-04-07T04:08:19;100008.24;;;4.88;62.29
62592;BME280;48659;41.622;2.276;2023-04-07T04:10:46;100009.11;;;5.88;59.86
62592;BME280;48659;41.622;2.276;2023-04-07T04:13:14;100006.49;;;7.17;55.83
62592;BME280;48659;41.622;2.276;2023-04-07T04:15:41;100010.76;;;7.65;55.53
62592;BME280;48659;41.622;2.276;2023-04-07T04:18:09;100012.44;;;6.12;58.66
62592;BME280;48659;41.622;2.276;2023-04-07T04:20:36;100011.49;;;6.46;57.90
62592;BME280;48659;41.622;2.276;2023-04-07T04:23:04;100015.28;;;5.56;60.42
62592;BME280;48659;41.622;2.276;2023-04-07T04:25:32;100011.17;;;7.10;57.85
62592;BME280;48659;41.622;2.276;2023-04-07T04:28:00;100009.78;;;7.21;55.46
62592;BME280;48659;41.622;2.276;2023-04-07T04:30:27;100003.84;;;7.50;55.33
62592;BME280;48659;41.622;2.276;2023-04-07T04:33:05;100004.98;;;7.68;54.43
62592;BME280;48659;41.622;2.276;2023-04-07T04:35:32;100009.28;;;6.65;56.58
62592;BME280;48659;41.622;2.276;2023-04-07T04:38:03;100010.88;;;6.20;57.10
62592;BME280;48659;41.622;2.276;2023-04-07T04:40:31;100009.33;;;4.42;62.42
62592;BME280;48659;41.622;2.276;2023-04-07T04:43:02;100009.31;;;4.49;64.08
62592;BME280;48659;41.622;2.276;2023-04-07T04:45:29;100005.16;;;6.05;59.69
62592;BME280;48659;41.622;2.276;2023-04-07T04:48:03;100005.95;;;6.56;57.41
62592;BME280;48659;41.622;2.276;2023-04-07T04:50:31;100004.01;;;7.25;56.58
62592;BME280;48659;41.622;2.276;2023-04-07T04:52:59;100003.17;;;5.79;58.41
62592;BME280;48659;41.622;2.276;2023-04-07T04:55:26;100000.03;;;6.11;59.75
62592;BME280;48659;41.622;2.276;2023-04-07T04:57:53;99994.35;;;7.80;54.74
62592;BME280;48659;41.622;2.276;2023-04-07T05:00:21;99992.73;;;7.86;53.18
62592;BME280;48659;41.622;2.276;2023-04-07T05:02:49;99991.72;;;8.02;53.32
62592;BME280;48659;41.622;2.276;2023-04-07T05:05:16;99990.29;;;7.82;54.39
62592;BME280;48659;41.622;2.276;2023-04-07T05:07:43;99990.16;;;8.26;53.53
62592;BME280;48659;41.622;2.276;2023-04-07T05:10:11;99986.25;;;8.66;51.94
62592;BME280;48659;41.622;2.276;2023-04-07T05:12:39;99987.17;;;8.54;52.38
62592;BME280;48659;41.622;2.276;2023-04-07T05:15:07;99987.19;;;8.38;52.24
62592;BME280;48659;41.622;2.276;2023-04-07T05:17:34;99985.81;;;8.41;51.94
62592;BME280;48659;41.622;2.276;2023-04-07T05:20:05;99985.74;;;8.20;51.07
62592;BME280;48659;41.622;2.276;2023-04-07T05:22:32;99986.41;;;8.78;50.62
62592;BME280;48659;41.622;2.276;2023-04-07T05:25:03;99983.75;;;8.17;50.74
62592;BME280;48659;41.622;2.276;2023-04-07T05:27:30;99982.34;;;8.80;50.61
62592;BME280;48659;41.622;2.276;2023-04-07T05:29:58;99983.77;;;8.34;50.99
62592;BME280;48659;41.622;2.276;2023-04-07T05:32:27;99989.08;;;7.00;53.10
62592;BME280;48659;41.622;2.276;2023-04-07T05:35:03;99988.12;;;6.99;53.91
62592;BME280;48659;41.622;2.276;2023-04-07T05:37:31;99989.86;;;8.69;51.14
62592;BME280;48659;41.622;2.276;2023-04-07T05:39:58;99987.78;;;8.42;51.62
62592;BME280;48659;41.622;2.276;2023-04-07T05:42:25;99986.50;;;7.55;54.02
62592;BME280;48659;41.622;2.276;2023-04-07T05:44:52;99991.46;;;6.59;56.64
62592;BME280;48659;41.622;2.276;2023-04-07T05:47:20;99983.41;;;7.43;55.26
62592;BME280;48659;41.622;2.276;2023-04-07T05:49:48;99984.90;;;8.01;53.66
62592;BME280;48659;41.622;2.276;2023-04-07T05:52:15;99988.83;;;8.51;52.26
62592;BME280;48659;41.622;2.276;2023-04-07T05:54:43;99985.68;;;8.53;52.49
62592;BME280;48659;41.622;2.276;2023-04-07T05:57:11;99977.11;;;9.05;50.57
62592;BME280;48659;41.622;2.276;2023-04-07T05:59:38;99978.36;;;9.11;50.42
62592;BME280;48659;41.622;2.276;2023-04-07T06:02:06;99977.80;;;8.75;49.66
62592;BME280;48659;41.622;2.276;2023-04-07T06:04:34;99983.60;;;8.86;50.08
62592;BME280;48659;41.622;2.276;2023-04-07T06:07:02;99986.80;;;8.77;50.45
62592;BME280;48659;41.622;2.276;2023-04-07T06:09:29;99988.89;;;8.19;51.41
62592;BME280;48659;41.622;2.276;2023-04-07T06:12:03;99991.91;;;6.59;54.24
62592;BME280;48659;41.622;2.276;2023-04-07T06:14:33;99990.38;;;7.72;53.37
62592;BME280;48659;41.622;2.276;2023-04-07T06:17:02;99983.75;;;8.86;50.63
62592;BME280;48659;41.622;2.276;2023-04-07T06:19:29;99987.46;;;8.99;50.33
62592;BME280;48659;41.622;2.276;2023-04-07T06:22:04;99990.62;;;9.21;49.18
62592;BME280;48659;41.622;2.276;2023-04-07T06:24:31;99996.65;;;8.37;51.07
62592;BME280;48659;41.622;2.276;2023-04-07T06:27:05;99992.65;;;8.28;49.71
62592;BME280;48659;41.622;2.276;2023-04-07T06:29:33;99990.36;;;9.49;48.43
62592;BME280;48659;41.622;2.276;2023-04-07T06:32:03;99991.79;;;9.72;47.50
62592;BME280;48659;41.622;2.276;2023-04-07T06:34:31;99992.08;;;9.54;48.15
62592;BME280;48659;41.622;2.276;2023-04-07T06:37:02;99988.40;;;9.83;47.87
62592;BME280;48659;41.622;2.276;2023-04-07T06:39:30;99991.09;;;10.52;46.82
62592;BME280;48659;41.622;2.276;2023-04-07T06:42:02;99994.36;;;10.54;46.66
62592;BME280;48659;41.622;2.276;2023-04-07T06:44:30;99989.79;;;11.24;45.65
62592;BME280;48659;41.622;2.276;2023-04-07T06:46:57;99990.43;;;11.15;44.95
62592;BME280;48659;41.622;2.276;2023-04-07T06:49:25;99986.34;;;11.60;44.81
62592;BME280;48659;41.622;2.276;2023-04-07T06:51:52;99988.22;;;11.85;44.64
62592;BME280;48659;41.622;2.276;2023-04-07T06:54:19;99987.78;;;12.06;44.24
62592;BME280;48659;41.622;2.276;2023-04-07T06:56:47;99987.29;;;12.83;43.20
62592;BME280;48659;41.622;2.276;2023-04-07T06:59:15;99988.87;;;12.27;43.40
62592;BME280;48659;41.622;2.276;2023-04-07T07:01:42;99985.77;;;12.90;43.14
62592;BME280;48659;41.622;2.276;2023-04-07T07:04:09;99981.10;;;12.25;43.92
62592;BME280;48659;41.622;2.276;2023-04-07T07:06:37;99981.05;;;13.10;43.48
62592;BME280;48659;41.622;2.276;2023-04-07T07:09:04;99979.50;;;12.34;43.36
62592;BME280;48659;41.622;2.276;2023-04-07T07:11:31;99975.52;;;12.92;43.14
62592;BME280;48659;41.622;2.276;2023-04-07T07:14:03;99974.67;;;13.04;42.73
62592;BME280;48659;41.622;2.276;2023-04-07T07:16:31;99972.17;;;12.92;43.38
62592;BME280;48659;41.622;2.276;2023-04-07T07:19:02;99974.82;;;12.60;43.85
62592;BME280;48659;41.622;2.276;2023-04-07T07:21:30;99973.58;;;12.98;43.52
62592;BME280;48659;41.622;2.276;2023-04-07T07:24:03;99974.08;;;12.69;44.73
62592;BME280;48659;41.622;2.276;2023-04-07T07:26:30;99978.35;;;12.56;44.91
62592;BME280;48659;41.622;2.276;2023-04-07T07:29:02;99974.89;;;13.22;43.29
62592;BME280;48659;41.622;2.276;2023-04-07T07:31:30;99975.72;;;13.39;43.16
62592;BME280;48659;41.622;2.276;2023-04-07T07:34:04;99973.44;;;13.80;42.83
62592;BME280;48659;41.622;2.276;2023-04-07T07:36:32;99974.02;;;13.27;42.91
62592;BME280;48659;41.622;2.276;2023-04-07T07:39:02;99966.62;;;13.01;42.56
62592;BME280;48659;41.622;2.276;2023-04-07T07:41:29;99964.22;;;13.48;42.43
62592;BME280;48659;41.622;2.276;2023-04-07T07:44:02;99965.02;;;12.49;43.34
62592;BME280;48659;41.622;2.276;2023-04-07T07:46:30;99965.57;;;13.48;42.37
62592;BME280;48659;41.622;2.276;2023-04-07T07:49:04;99967.95;;;13.78;42.32
62592;BME280;48659;41.622;2.276;2023-04-07T07:51:32;99971.67;;;12.21;45.35
62592;BME280;48659;41.622;2.276;2023-04-07T07:54:03;99973.91;;;11.96;45.66
62592;BME280;48659;41.622;2.276;2023-04-07T07:56:31;99972.30;;;12.92;46.00
62592;BME280;48659;41.622;2.276;2023-04-07T07:59:03;99970.38;;;13.91;43.01
62592;BME280;48659;41.622;2.276;2023-04-07T08:01:31;99969.93;;;14.06;41.96
62592;BME280;48659;41.622;2.276;2023-04-07T08:04:02;99967.73;;;14.16;43.68
62592;BME280;48659;41.622;2.276;2023-04-07T08:06:29;99966.50;;;14.05;42.21
62592;BME280;48659;41.622;2.276;2023-04-07T08:09:02;99965.60;;;13.10;42.21
62592;BME280;48659;41.622;2.276;2023-04-07T08:11:30;99964.25;;;13.66;42.85
62592;BME280;48659;41.622;2.276;2023-04-07T08:13:57;99964.27;;;14.18;41.33
62592;BME280;48659;41.622;2.276;2023-04-07T08:16:24;99964.27;;;12.65;44.59
62592;BME280;48659;41.622;2.276;2023-04-07T08:18:52;99961.98;;;13.52;43.43
62592;BME280;48659;41.622;2.276;2023-04-07T08:21:19;99958.69;;;14.16;41.34
62592;BME280;48659;41.622;2.276;2023-04-07T08:23:47;99963.51;;;12.49;44.78
62592;BME280;48659;41.622;2.276;2023-04-07T08:26:13;99964.29;;;10.81;47.28
62592;BME280;48659;41.622;2.276;2023-04-07T08:28:41;99962.16;;;12.07;46.01
62592;BME280;48659;41.622;2.276;2023-04-07T08:31:08;99959.24;;;13.50;42.74
62592;BME280;48659;41.622;2.276;2023-04-07T08:33:35;99961.10;;;14.13;41.94
62592;BME280;48659;41.622;2.276;2023-04-07T08:36:03;99959.64;;;12.48;43.79
62592;BME280;48659;41.622;2.276;2023-04-07T08:38:31;99956.93;;;14.14;41.71
62592;BME280;48659;41.622;2.276;2023-04-07T08:41:02;99958.81;;;13.77;42.16
62592;BME280;48659;41.622;2.276;2023-04-07T08:43:30;99956.76;;;13.51;41.95
62592;BME280;48659;41.622;2.276;2023-04-07T08:46:04;99954.96;;;12.90;43.11
62592;BME280;48659;41.622;2.276;2023-04-07T08:48:32;99955.97;;;14.78;40.56
62592;BME280;48659;41.622;2.276;2023-04-07T08:51:04;99957.10;;;13.07;42.20
62592;BME280;48659;41.622;2.276;2023-04-07T08:53:40;99956.90;;;13.11;42.19
62592;BME280;48659;41.622;2.276;2023-04-07T08:56:11;99956.13;;;13.71;41.22
62592;BME280;48659;41.622;2.276;2023-04-07T08:58:38;99957.35;;;14.98;38.83
62592;BME280;48659;41.622;2.276;2023-04-07T09:01:08;99957.17;;;14.25;39.81
62592;BME280;48659;41.622;2.276;2023-04-07T09:03:35;99952.87;;;14.11;38.56
62592;BME280;48659;41.622;2.276;2023-04-07T09:06:04;99948.13;;;15.00;36.81
62592;BME280;48659;41.622;2.276;2023-04-07T09:08:31;99943.03;;;16.15;35.83
62592;BME280;48659;41.622;2.276;2023-04-07T09:11:04;99938.64;;;15.56;36.24
62592;BME280;48659;41.622;2.276;2023-04-07T09:13:31;99945.54;;;15.31;36.73
62592;BME280;48659;41.622;2.276;2023-04-07T09:16:01;99940.20;;;15.97;36.59
62592;BME280;48659;41.622;2.276;2023-04-07T09:18:29;99944.31;;;13.76;39.39
62592;BME280;48659;41.622;2.276;2023-04-07T09:21:04;99936.90;;;15.45;36.68
62592;BME280;48659;41.622;2.276;2023-04-07T09:23:34;99936.82;;;15.22;37.15
62592;BME280;48659;41.622;2.276;2023-04-07T09:26:19;99936.64;;;14.68;37.30
62592;BME280;48659;41.622;2.276;2023-04-07T09:28:49;99929.12;;;16.47;35.25
62592;BME280;48659;41.622;2.276;2023-04-07T09:31:17;99931.96;;;14.55;37.87
62592;BME280;48659;41.622;2.276;2023-04-07T09:33:45;99927.55;;;16.45;35.95
62592;BME280;48659;41.622;2.276;2023-04-07T09:36:12;99926.94;;;15.38;36.47
62592;BME280;48659;41.622;2.276;2023-04-07T09:38:40;99925.55;;;16.34;35.04
62592;BME280;48659;41.622;2.276;2023-04-07T09:41:09;99920.78;;;16.09;34.60
62592;BME280;48659;41.622;2.276;2023-04-07T09:43:38;99917.71;;;16.72;34.42
62592;BME280;48659;41.622;2.276;2023-04-07T09:46:08;99918.32;;;16.14;34.40
62592;BME280;48659;41.622;2.276;2023-04-07T09:48:37;99912.31;;;17.23;33.98
62592;BME280;48659;41.622;2.276;2023-04-07T09:51:06;99920.09;;;13.87;38.95
62592;BME280;48659;41.622;2.276;2023-04-07T09:53:43;99916.81;;;14.30;36.97
62592;BME280;48659;41.622;2.276;2023-04-07T09:56:12;99911.74;;;15.64;35.91
62592;BME280;48659;41.622;2.276;2023-04-07T09:58:39;99907.00;;;16.31;34.29
62592;BME280;48659;41.622;2.276;2023-04-07T10:01:08;99901.29;;;16.75;32.91
62592;BME280;48659;41.622;2.276;2023-04-07T10:03:36;99897.12;;;14.74;35.15
62592;BME280;48659;41.622;2.276;2023-04-07T10:06:05;99895.86;;;15.89;33.96
62592;BME280;48659;41.622;2.276;2023-04-07T10:08:34;99897.18;;;16.72;32.44
62592;BME280;48659;41.622;2.276;2023-04-07T10:11:05;99894.87;;;16.25;32.51
62592;BME280;48659;41.622;2.276;2023-04-07T10:13:38;99885.30;;;17.14;32.25
62592;BME280;48659;41.622;2.276;2023-04-07T10:16:07;99883.75;;;15.60;34.77
62592;BME280;48659;41.622;2.276;2023-04-07T10:18:35;99877.86;;;17.05;33.72
62592;BME280;48659;41.622;2.276;2023-04-07T10:21:06;99879.98;;;16.86;33.99
62592;BME280;48659;41.622;2.276;2023-04-07T10:23:48;99870.27;;;17.21;34.62
62592;BME280;48659;41.622;2.276;2023-04-07T10:26:22;99867.96;;;17.98;33.13
62592;BME280;48659;41.622;2.276;2023-04-07T10:29:03;99860.72;;;17.48;33.71
62592;BME280;48659;41.622;2.276;2023-04-07T10:31:32;99857.57;;;17.26;34.53
62592;BME280;48659;41.622;2.276;2023-04-07T10:34:03;99855.24;;;17.11;34.31
62592;BME280;48659;41.622;2.276;2023-04-07T10:36:31;99851.45;;;18.34;31.90
62592;BME280;48659;41.622;2.276;2023-04-07T10:39:19;99845.59;;;17.90;32.27
62592;BME280;48659;41.622;2.276;2023-04-07T10:41:47;99838.96;;;18.64;31.47
62592;BME280;48659;41.622;2.276;2023-04-07T10:44:47;99833.79;;;18.39;31.48
62592;BME280;48659;41.622;2.276;2023-04-07T10:47:14;99824.00;;;18.31;29.89
62592;BME280;48659;41.622;2.276;2023-04-07T10:50:16;99820.68;;;18.78;30.07
62592;BME280;48659;41.622;2.276;2023-04-07T10:52:44;99825.27;;;17.86;31.40
62592;BME280;48659;41.622;2.276;2023-04-07T10:55:30;99818.86;;;17.24;32.91
62592;BME280;48659;41.622;2.276;2023-04-07T10:58:20;99813.09;;;18.35;31.39
62592;BME280;48659;41.622;2.276;2023-04-07T11:01:21;99810.36;;;18.31;31.11
62592;BME280;48659;41.622;2.276;2023-04-07T11:04:05;99815.91;;;18.74;30.75
62592;BME280;48659;41.622;2.276;2023-04-07T11:06:33;99807.10;;;17.47;32.08
62592;BME280;48659;41.622;2.276;2023-04-07T11:09:03;99802.81;;;18.43;31.04
62592;BME280;48659;41.622;2.276;2023-04-07T11:11:36;99799.03;;;17.28;33.53
62592;BME280;48659;41.622;2.276;2023-04-07T11:14:03;99794.38;;;17.10;33.82
62592;BME280;48659;41.622;2.276;2023-04-07T11:16:36;99788.46;;;18.98;32.13
62592;BME280;48659;41.622;2.276;2023-04-07T11:19:04;99777.52;;;18.76;31.46
62592;BME280;48659;41.622;2.276;2023-04-07T11:21:32;99778.73;;;17.50;34.69
62592;BME280;48659;41.622;2.276;2023-04-07T11:24:03;99771.76;;;18.95;33.50
62592;BME280;48659;41.622;2.276;2023-04-07T11:26:37;99773.86;;;19.45;31.99
62592;BME280;48659;41.622;2.276;2023-04-07T11:29:06;99768.39;;;19.05;31.55
62592;BME280;48659;41.622;2.276;2023-04-07T11:31:33;99764.19;;;19.82;30.50
62592;BME280;48659;41.622;2.276;2023-04-07T11:34:04;99771.26;;;16.76;34.15
62592;BME280;48659;41.622;2.276;2023-04-07T11:36:32;99754.54;;;19.44;31.40
62592;BME280;48659;41.622;2.276;2023-04-07T11:39:03;99749.22;;;19.74;30.20
62592;BME280;48659;41.622;2.276;2023-04-07T11:41:31;99742.47;;;19.79;30.54
62592;BME280;48659;41.622;2.276;2023-04-07T11:44:05;99740.16;;;19.32;31.17
62592;BME280;48659;41.622;2.276;2023-04-07T11:46:32;99732.26;;;20.70;30.33
62592;BME280;48659;41.622;2.276;2023-04-07T11:49:09;99733.56;;;19.40;32.17
62592;BME280;48659;41.622;2.276;2023-04-07T11:51:36;99727.83;;;19.80;31.85
62592;BME280;48659;41.622;2.276;2023-04-07T11:54:04;99726.41;;;18.76;35.97
62592;BME280;48659;41.622;2.276;2023-04-07T11:56:42;99723.59;;;17.43;38.31
62592;BME280;48659;41.622;2.276;2023-04-07T11:59:18;99721.98;;;19.23;36.24
62592;BME280;48659;41.622;2.276;2023-04-07T12:01:46;99719.87;;;19.26;37.14
62592;BME280;48659;41.622;2.276;2023-04-07T12:04:13;99710.18;;;19.73;32.52
62592;BME280;48659;41.622;2.276;2023-04-07T12:06:41;99702.23;;;20.37;31.75
62592;BME280;48659;41.622;2.276;2023-04-07T12:09:23;99707.57;;;19.43;32.40
62592;BME280;48659;41.622;2.276;2023-04-07T12:11:50;99709.20;;;19.43;34.97
62592;BME280;48659;41.622;2.276;2023-04-07T12:14:18;99703.99;;;18.46;37.77
62592;BME280;48659;41.622;2.276;2023-04-07T12:16:46;99703.01;;;19.58;33.72
62592;BME280;48659;41.622;2.276;2023-04-07T12:19:14;99693.77;;;20.64;31.33
62592;BME280;48659;41.622;2.276;2023-04-07T12:21:41;99694.79;;;19.18;32.82
62592;BME280;48659;41.622;2.276;2023-04-07T12:24:08;99692.12;;;19.49;34.90
62592;BME280;48659;41.622;2.276;2023-04-07T12:26:36;99690.42;;;19.24;35.14
62592;BME280;48659;41.622;2.276;2023-04-07T12:29:04;99680.67;;;19.81;33.67
62592;BME280;48659;41.622;2.276;2023-04-07T12:31:31;99679.15;;;19.13;35.08
62592;BME280;48659;41.622;2.276;2023-04-07T12:34:02;99671.73;;;17.92;36.67
62592;BME280;48659;41.622;2.276;2023-04-07T12:36:30;99673.94;;;18.08;36.92
62592;BME280;48659;41.622;2.276;2023-04-07T12:38:57;99676.15;;;19.13;35.64
62592;BME280;48659;41.622;2.276;2023-04-07T12:41:25;99674.16;;;18.83;37.21
62592;BME280;48659;41.622;2.276;2023-04-07T12:43:52;99674.73;;;18.09;38.81
62592;BME280;48659;41.622;2.276;2023-04-07T12:46:20;99664.45;;;18.13;37.37
62592;BME280;48659;41.622;2.276;2023-04-07T12:48:48;99669.26;;;19.70;35.18
62592;BME280;48659;41.622;2.276;2023-04-07T12:51:15;99665.38;;;19.27;35.51
62592;BME280;48659;41.622;2.276;2023-04-07T12:53:43;99663.59;;;18.55;37.56
62592;BME280;48659;41.622;2.276;2023-04-07T12:56:11;99653.34;;;19.37;36.28
62592;BME280;48659;41.622;2.276;2023-04-07T12:58:38;99651.30;;;18.47;39.58
62592;BME280;48659;41.622;2.276;2023-04-07T13:01:06;99650.69;;;17.83;40.95
62592;BME280;48659;41.622;2.276;2023-04-07T13:03:34;99652.71;;;19.10;39.40
62592;BME280;48659;41.622;2.276;2023-04-07T13:06:04;99645.93;;;18.92;38.90
62592;BME280;48659;41.622;2.276;2023-04-07T13:08:31;99641.21;;;18.44;39.99
62592;BME280;48659;41.622;2.276;2023-04-07T13:11:03;99632.02;;;19.70;37.22
62592;BME280;48659;41.622;2.276;2023-04-07T13:13:31;99627.45;;;19.90;36.45
62592;BME280;48659;41.622;2.276;2023-04-07T13:15:59;99623.46;;;18.22;39.48